In Rescue
 
Open Full Screen Window  High Contrast Mode
Wind Gusting 00 knots
04
July 25, 2021 9:30 AM EDT
Weather Information
Wind Direction
  220 °
Wind Speed
  04 kt (5 mph)
Wind Gust
  00 kt (0 mph)
Altimeter
29.89 in
Visibility
10 SM
Temperature
24° C
75° F
Dewpoint
22° C
72° F
Humidity
89%
Sky Condition
Clear
VFR

METAR KPHN 251330Z AUTO 22004KT 10SM CLR 24/22 A2989 RMK AO2

FAA Disclaimer: The data displayed is for advisory purposes only and is not to be used for flight planning or operations.